• Join FlightAware (Why Join?)
  • Login
  • US Flag 
05:49PM EDT


 

Airport Tracker/Info


-or-


 

Live Flight TrackerFlight Track Log ✈ N3049D ✈ 29-Apr-2012 ✈ KSOP - KARW

Flight Track Log - Related Links

Times and Time Zones

All times are in EDT time to prevent confusion due to time zone crossing. See the N3049D flight status page for this flight to view local times or setup timezone preferences in your user account.

Time Position Orientation Groundspeed Altitude Reporting Facility
EDT Latitude Longitude Course Direction KTS MPH feet Rate Location/Type
01:22PM 35.2156 -79.3988 200° South  Level FlightAware Approximate
01:23PM 35.1683 -79.4203 200° South  Level FlightAware Approximate
01:24PM 35.1210 -79.4418 192° South  Level FlightAware Approximate
01:25PM 35.0718 -79.4544 201° Southwest  Level FlightAware Approximate
01:26PM 35.0245 -79.4759 201° Southwest  Level FlightAware Approximate
01:27PM 34.9773 -79.4975 200° South  Level FlightAware Approximate
01:28PM 34.9319 -79.5173 200° South  Level FlightAware Approximate
01:29PM 34.8847 -79.5388 200° South  Level FlightAware Approximate
01:30PM 34.8375 -79.5603 200° South  Level FlightAware Approximate
01:31PM 34.7902 -79.5818 200° South  Level FlightAware Approximate
01:32PM 34.7430 -79.6033 200° South  Level FlightAware Approximate
01:33PM 34.6958 -79.6247 204° Southwest  Level FlightAware Approximate
01:34PM 34.6499 -79.6501 200° South  Level FlightAware Approximate
01:35PM 34.6026 -79.6713 200° South  Level FlightAware Approximate
01:36PM 34.5553 -79.6926 200° South  Level FlightAware Approximate
01:37PM 34.5080 -79.7139 200° South  Level FlightAware Approximate
01:38PM 34.4607 -79.7351 200° South  Level FlightAware Approximate
01:39PM 34.4134 -79.7562 200° South  Level FlightAware Approximate
01:40PM 34.3661 -79.7774 200° South  Level FlightAware Approximate
01:41PM 34.3188 -79.7986 200° South  Level FlightAware Approximate
01:42PM 34.2715 -79.8197 200° South  Level FlightAware Approximate
01:43PM 34.2242 -79.8408 200° South  Level FlightAware Approximate
01:44PM 34.1769 -79.8618 200° South  Level FlightAware Approximate
01:45PM 34.1296 -79.8829 200° South  Level FlightAware Approximate
01:46PM 34.0823 -79.9039 200° South  Level FlightAware Approximate
01:47PM 34.0349 -79.9249 200° South  Level FlightAware Approximate
01:48PM 33.9876 -79.9459 200° South  Level FlightAware Approximate
01:49PM 33.9403 -79.9668 191° South  Level FlightAware Approximate
01:50PM 33.8916 -79.9781 200° South  Level FlightAware Approximate
01:51PM 33.8444 -79.9993 200° South  Level FlightAware Approximate
01:52PM 33.7971 -80.0205 200° South  Level FlightAware Approximate
01:53PM 33.7499 -80.0417 200° South  Level FlightAware Approximate
01:54PM 33.7026 -80.0628 200° South  Level FlightAware Approximate
01:55PM 33.6554 -80.0840 200° South  Level FlightAware Approximate
01:56PM 33.6081 -80.1051 200° South  Level FlightAware Approximate
01:57PM 33.5608 -80.1261 200° South  Level FlightAware Approximate
01:58PM 33.5136 -80.1472 200° South  Level FlightAware Approximate
01:59PM 33.4663 -80.1682 200° South  Level FlightAware Approximate
02:00PM 33.4190 -80.1892 200° South  Level FlightAware Approximate
02:01PM 33.3717 -80.2102 204° Southwest  Level FlightAware Approximate
02:02PM 33.3262 -80.2340 200° South  Level FlightAware Approximate
02:03PM 33.2789 -80.2548 199° South  Level FlightAware Approximate
02:04PM 33.2312 -80.2744 200° South  Level FlightAware Approximate
02:05PM 33.1838 -80.2952 200° South  Level FlightAware Approximate
02:06PM 33.1365 -80.3159 200° South  Level FlightAware Approximate
02:07PM 33.0892 -80.3367 200° South  Level FlightAware Approximate
02:08PM 33.0418 -80.3574 200° South  Level FlightAware Approximate
02:09PM 32.9945 -80.3781 200° South  Level FlightAware Approximate
02:10PM 32.9472 -80.3988 200° South  Level FlightAware Approximate
02:11PM 32.8998 -80.4194 190° South  Level FlightAware Approximate
02:12PM 32.8513 -80.4295 201° Southwest  Level FlightAware Approximate
02:13PM 32.8043 -80.4513 201° Southwest  Level FlightAware Approximate
02:14PM 32.7574 -80.4732 208° Southwest  Level FlightAware Approximate
02:15PM 32.7130 -80.5014 200° South  Level FlightAware Approximate
02:16PM 32.6656 -80.5218 200° South  Level FlightAware Approximate
02:17PM 32.6182 -80.5422 200° South  Level FlightAware Approximate
02:18PM 32.5708 -80.5625 191° South  Level FlightAware Approximate
02:19PM 32.5221 -80.5741 208° Southwest  Level FlightAware Approximate
02:20PM 32.4777 -80.6022 202° Southwest  Level FlightAware Approximate
02:21PM 32.4311 -80.6251 193° South  Level Estimated
02:22PM 32.4000 -80.6333 356° North  Level FlightAware Approximate
02:23PM 32.4503 -80.6376 176° South  Level Estimated
02:24PM 32.4000 -80.6333 356° North  Level FlightAware Approximate
02:25PM 32.4503 -80.6376 356° North  Level Estimated